sensor_id;sensor_type;location;lat;lon;timestamp;temperature;humidity
10597;DHT22;5346;48.766;8.674;2023-07-09T00:00:00;20.40;1.00
10597;DHT22;5346;48.766;8.674;2023-07-09T00:02:34;20.50;1.00
10597;DHT22;5346;48.766;8.674;2023-07-09T00:05:14;20.50;1.00
10597;DHT22;5346;48.766;8.674;2023-07-09T00:07:50;20.60;1.00
10597;DHT22;5346;48.766;8.674;2023-07-09T00:10:24;20.70;1.00
10597;DHT22;5346;48.766;8.674;2023-07-09T00:12:58;20.70;1.00
10597;DHT22;5346;48.766;8.674;2023-07-09T00:15:26;20.70;1.00
10597;DHT22;5346;48.766;8.674;2023-07-09T00:18:00;20.70;1.00
10597;DHT22;5346;48.766;8.674;2023-07-09T00:20:34;20.70;1.00
10597;DHT22;5346;48.766;8.674;2023-07-09T00:23:01;20.80;1.00
10597;DHT22;5346;48.766;8.674;2023-07-09T00:25:31;20.90;1.00
10597;DHT22;5346;48.766;8.674;2023-07-09T00:28:13;20.90;1.00
10597;DHT22;5346;48.766;8.674;2023-07-09T00:30:49;20.90;1.00
10597;DHT22;5346;48.766;8.674;2023-07-09T00:33:23;20.90;1.00
10597;DHT22;5346;48.766;8.674;2023-07-09T00:36:15;20.90;1.00
10597;DHT22;5346;48.766;8.674;2023-07-09T00:38:51;21.00;1.00
10597;DHT22;5346;48.766;8.674;2023-07-09T00:41:21;21.00;1.00
10597;DHT22;5346;48.766;8.674;2023-07-09T00:43:56;21.00;1.00
10597;DHT22;5346;48.766;8.674;2023-07-09T00:49:07;21.10;99.90
10597;DHT22;5346;48.766;8.674;2023-07-09T00:51:40;21.20;99.90
10597;DHT22;5346;48.766;8.674;2023-07-09T00:54:35;21.10;99.90
10597;DHT22;5346;48.766;8.674;2023-07-09T00:57:12;21.00;1.00
10597;DHT22;5346;48.766;8.674;2023-07-09T00:59:55;20.90;1.00
10597;DHT22;5346;48.766;8.674;2023-07-09T01:02:42;20.80;1.00
10597;DHT22;5346;48.766;8.674;2023-07-09T01:05:18;20.70;1.00
10597;DHT22;5346;48.766;8.674;2023-07-09T01:07:53;20.60;1.00
10597;DHT22;5346;48.766;8.674;2023-07-09T01:10:28;20.50;1.00
10597;DHT22;5346;48.766;8.674;2023-07-09T01:12:56;20.50;1.00
10597;DHT22;5346;48.766;8.674;2023-07-09T01:15:30;20.50;1.00
10597;DHT22;5346;48.766;8.674;2023-07-09T01:18:01;20.40;1.00
10597;DHT22;5346;48.766;8.674;2023-07-09T01:20:35;20.30;1.00
10597;DHT22;5346;48.766;8.674;2023-07-09T01:23:02;20.20;1.00
10597;DHT22;5346;48.766;8.674;2023-07-09T01:25:41;20.00;1.00
10597;DHT22;5346;48.766;8.674;2023-07-09T01:28:13;19.80;1.00
10597;DHT22;5346;48.766;8.674;2023-07-09T01:30:48;19.70;1.00
10597;DHT22;5346;48.766;8.674;2023-07-09T01:33:22;19.60;1.00
10597;DHT22;5346;48.766;8.674;2023-07-09T01:35:56;19.50;1.00
10597;DHT22;5346;48.766;8.674;2023-07-09T01:38:27;19.40;1.00
10597;DHT22;5346;48.766;8.674;2023-07-09T01:41:04;19.30;1.00
10597;DHT22;5346;48.766;8.674;2023-07-09T01:43:38;19.20;1.00
10597;DHT22;5346;48.766;8.674;2023-07-09T01:46:12;19.00;1.00
10597;DHT22;5346;48.766;8.674;2023-07-09T01:48:41;19.00;1.00
10597;DHT22;5346;48.766;8.674;2023-07-09T01:51:16;18.90;1.00
10597;DHT22;5346;48.766;8.674;2023-07-09T01:53:44;18.90;1.00
10597;DHT22;5346;48.766;8.674;2023-07-09T01:56:18;18.90;1.00
10597;DHT22;5346;48.766;8.674;2023-07-09T01:58:52;18.90;1.00
10597;DHT22;5346;48.766;8.674;2023-07-09T02:01:20;18.90;1.00
10597;DHT22;5346;48.766;8.674;2023-07-09T02:03:54;18.90;1.00
10597;DHT22;5346;48.766;8.674;2023-07-09T02:06:29;18.80;1.00
10597;DHT22;5346;48.766;8.674;2023-07-09T02:09:06;18.80;1.00
10597;DHT22;5346;48.766;8.674;2023-07-09T02:11:40;18.80;1.00
10597;DHT22;5346;48.766;8.674;2023-07-09T02:14:08;18.90;1.00
10597;DHT22;5346;48.766;8.674;2023-07-09T02:16:42;19.00;1.00
10597;DHT22;5346;48.766;8.674;2023-07-09T02:19:18;19.10;1.00
10597;DHT22;5346;48.766;8.674;2023-07-09T02:21:51;19.20;1.00
10597;DHT22;5346;48.766;8.674;2023-07-09T02:24:18;19.20;1.00
10597;DHT22;5346;48.766;8.674;2023-07-09T02:27:00;19.20;1.00
10597;DHT22;5346;48.766;8.674;2023-07-09T02:29:35;19.30;1.00
10597;DHT22;5346;48.766;8.674;2023-07-09T02:32:09;19.30;1.00
10597;DHT22;5346;48.766;8.674;2023-07-09T02:34:40;19.40;1.00
10597;DHT22;5346;48.766;8.674;2023-07-09T02:37:15;19.40;1.00
10597;DHT22;5346;48.766;8.674;2023-07-09T02:39:51;19.40;1.00
10597;DHT22;5346;48.766;8.674;2023-07-09T02:42:26;19.40;1.00
10597;DHT22;5346;48.766;8.674;2023-07-09T02:45:01;19.30;1.00
10597;DHT22;5346;48.766;8.674;2023-07-09T02:47:30;19.30;1.00
10597;DHT22;5346;48.766;8.674;2023-07-09T02:50:05;19.30;1.00
10597;DHT22;5346;48.766;8.674;2023-07-09T02:52:40;19.30;1.00
10597;DHT22;5346;48.766;8.674;2023-07-09T02:55:15;19.20;1.00
10597;DHT22;5346;48.766;8.674;2023-07-09T02:57:50;19.10;1.00
10597;DHT22;5346;48.766;8.674;2023-07-09T03:00:18;19.10;1.00
10597;DHT22;5346;48.766;8.674;2023-07-09T03:02:51;19.00;1.00
10597;DHT22;5346;48.766;8.674;2023-07-09T03:05:33;19.00;1.00
10597;DHT22;5346;48.766;8.674;2023-07-09T03:08:08;19.00;1.00
10597;DHT22;5346;48.766;8.674;2023-07-09T03:10:42;19.10;1.00
10597;DHT22;5346;48.766;8.674;2023-07-09T03:13:16;19.10;1.00
10597;DHT22;5346;48.766;8.674;2023-07-09T03:15:54;19.10;1.00
10597;DHT22;5346;48.766;8.674;2023-07-09T03:18:29;19.10;1.00
10597;DHT22;5346;48.766;8.674;2023-07-09T03:21:03;19.10;1.00
10597;DHT22;5346;48.766;8.674;2023-07-09T03:23:37;19.20;1.00
10597;DHT22;5346;48.766;8.674;2023-07-09T03:26:04;19.20;1.00
10597;DHT22;5346;48.766;8.674;2023-07-09T03:28:38;19.20;1.00
10597;DHT22;5346;48.766;8.674;2023-07-09T03:31:06;19.30;1.00
10597;DHT22;5346;48.766;8.674;2023-07-09T03:33:40;19.30;1.00
10597;DHT22;5346;48.766;8.674;2023-07-09T03:36:15;19.30;1.00
10597;DHT22;5346;48.766;8.674;2023-07-09T03:38:49;19.40;1.00
10597;DHT22;5346;48.766;8.674;2023-07-09T03:41:16;19.50;1.00
10597;DHT22;5346;48.766;8.674;2023-07-09T03:43:50;19.50;1.00
10597;DHT22;5346;48.766;8.674;2023-07-09T03:46:19;19.60;1.00
10597;DHT22;5346;48.766;8.674;2023-07-09T03:48:53;19.60;1.00
10597;DHT22;5346;48.766;8.674;2023-07-09T03:51:27;19.50;1.00
10597;DHT22;5346;48.766;8.674;2023-07-09T03:54:02;19.50;1.00
10597;DHT22;5346;48.766;8.674;2023-07-09T03:56:36;19.50;1.00
10597;DHT22;5346;48.766;8.674;2023-07-09T03:59:10;19.40;1.00
10597;DHT22;5346;48.766;8.674;2023-07-09T04:01:44;19.40;1.00
10597;DHT22;5346;48.766;8.674;2023-07-09T04:04:25;19.50;1.00
10597;DHT22;5346;48.766;8.674;2023-07-09T04:06:53;19.50;1.00
10597;DHT22;5346;48.766;8.674;2023-07-09T04:09:26;19.50;1.00
10597;DHT22;5346;48.766;8.674;2023-07-09T04:12:00;19.50;1.00
10597;DHT22;5346;48.766;8.674;2023-07-09T04:14:30;19.50;1.00
10597;DHT22;5346;48.766;8.674;2023-07-09T04:17:04;19.60;1.00
10597;DHT22;5346;48.766;8.674;2023-07-09T04:19:38;19.70;1.00
10597;DHT22;5346;48.766;8.674;2023-07-09T04:22:12;19.90;1.00
10597;DHT22;5346;48.766;8.674;2023-07-09T04:24:41;20.00;1.00
10597;DHT22;5346;48.766;8.674;2023-07-09T04:27:16;19.90;1.00
10597;DHT22;5346;48.766;8.674;2023-07-09T04:29:44;20.00;1.00
10597;DHT22;5346;48.766;8.674;2023-07-09T04:32:18;20.00;1.00
10597;DHT22;5346;48.766;8.674;2023-07-09T04:34:46;20.10;1.00
10597;DHT22;5346;48.766;8.674;2023-07-09T04:37:14;20.20;1.00
10597;DHT22;5346;48.766;8.674;2023-07-09T04:39:51;20.20;1.00
10597;DHT22;5346;48.766;8.674;2023-07-09T04:42:19;20.30;1.00
10597;DHT22;5346;48.766;8.674;2023-07-09T04:44:52;20.30;1.00
10597;DHT22;5346;48.766;8.674;2023-07-09T04:47:19;20.40;1.00
10597;DHT22;5346;48.766;8.674;2023-07-09T04:49:54;20.40;1.00
10597;DHT22;5346;48.766;8.674;2023-07-09T04:52:21;20.50;1.00
10597;DHT22;5346;48.766;8.674;2023-07-09T04:54:56;20.60;1.00
10597;DHT22;5346;48.766;8.674;2023-07-09T04:57:30;20.70;1.00
10597;DHT22;5346;48.766;8.674;2023-07-09T04:59:58;20.80;1.00
10597;DHT22;5346;48.766;8.674;2023-07-09T05:02:33;21.00;1.00
10597;DHT22;5346;48.766;8.674;2023-07-09T05:05:08;21.10;1.00
10597;DHT22;5346;48.766;8.674;2023-07-09T05:07:41;21.20;1.00
10597;DHT22;5346;48.766;8.674;2023-07-09T05:10:15;21.40;1.00
10597;DHT22;5346;48.766;8.674;2023-07-09T05:12:54;21.50;1.00
10597;DHT22;5346;48.766;8.674;2023-07-09T05:15:28;21.70;1.00
10597;DHT22;5346;48.766;8.674;2023-07-09T05:18:02;21.80;1.00
10597;DHT22;5346;48.766;8.674;2023-07-09T05:20:38;22.00;1.00
10597;DHT22;5346;48.766;8.674;2023-07-09T05:23:13;22.10;1.00
10597;DHT22;5346;48.766;8.674;2023-07-09T05:25:41;22.20;1.00
10597;DHT22;5346;48.766;8.674;2023-07-09T05:28:30;22.30;99.90
10597;DHT22;5346;48.766;8.674;2023-07-09T05:31:07;22.50;99.90
10597;DHT22;5346;48.766;8.674;2023-07-09T05:33:41;22.60;99.90
10597;DHT22;5346;48.766;8.674;2023-07-09T05:36:15;22.80;99.90
10597;DHT22;5346;48.766;8.674;2023-07-09T05:38:49;22.90;99.90
10597;DHT22;5346;48.766;8.674;2023-07-09T05:41:18;23.10;99.90
10597;DHT22;5346;48.766;8.674;2023-07-09T05:43:52;23.20;99.90
10597;DHT22;5346;48.766;8.674;2023-07-09T05:46:27;23.30;99.90
10597;DHT22;5346;48.766;8.674;2023-07-09T05:49:01;23.40;99.90
10597;DHT22;5346;48.766;8.674;2023-07-09T05:51:30;23.60;99.90
10597;DHT22;5346;48.766;8.674;2023-07-09T05:54:04;23.80;99.90
10597;DHT22;5346;48.766;8.674;2023-07-09T05:56:32;24.00;99.90
10597;DHT22;5346;48.766;8.674;2023-07-09T05:59:05;24.10;99.90
10597;DHT22;5346;48.766;8.674;2023-07-09T06:01:39;24.30;99.90
10597;DHT22;5346;48.766;8.674;2023-07-09T06:04:29;24.40;99.90
10597;DHT22;5346;48.766;8.674;2023-07-09T06:07:10;24.60;99.90
10597;DHT22;5346;48.766;8.674;2023-07-09T06:09:38;24.80;99.90
10597;DHT22;5346;48.766;8.674;2023-07-09T06:12:12;24.90;99.90
10597;DHT22;5346;48.766;8.674;2023-07-09T06:14:46;25.00;99.90
10597;DHT22;5346;48.766;8.674;2023-07-09T06:17:14;25.20;99.90
10597;DHT22;5346;48.766;8.674;2023-07-09T06:19:48;25.30;99.90
10597;DHT22;5346;48.766;8.674;2023-07-09T06:22:25;25.40;99.90
10597;DHT22;5346;48.766;8.674;2023-07-09T06:24:59;25.60;99.90
10597;DHT22;5346;48.766;8.674;2023-07-09T06:27:33;25.80;99.90
10597;DHT22;5346;48.766;8.674;2023-07-09T06:30:00;25.90;99.90
10597;DHT22;5346;48.766;8.674;2023-07-09T06:32:34;26.00;99.90
10597;DHT22;5346;48.766;8.674;2023-07-09T06:35:04;26.10;99.90
10597;DHT22;5346;48.766;8.674;2023-07-09T06:37:38;26.10;99.90
10597;DHT22;5346;48.766;8.674;2023-07-09T06:40:06;26.20;99.90
10597;DHT22;5346;48.766;8.674;2023-07-09T06:42:42;26.30;99.90
10597;DHT22;5346;48.766;8.674;2023-07-09T06:45:16;26.40;99.90
10597;DHT22;5346;48.766;8.674;2023-07-09T06:47:50;26.50;99.90
10597;DHT22;5346;48.766;8.674;2023-07-09T06:50:18;26.50;99.90
10597;DHT22;5346;48.766;8.674;2023-07-09T06:52:52;26.60;99.90
10597;DHT22;5346;48.766;8.674;2023-07-09T06:55:26;26.60;99.90
10597;DHT22;5346;48.766;8.674;2023-07-09T06:58:00;26.70;99.90
10597;DHT22;5346;48.766;8.674;2023-07-09T07:00:36;26.70;99.90
10597;DHT22;5346;48.766;8.674;2023-07-09T07:03:17;26.80;99.90
10597;DHT22;5346;48.766;8.674;2023-07-09T07:05:53;26.90;99.90
10597;DHT22;5346;48.766;8.674;2023-07-09T07:08:28;26.90;99.90
10597;DHT22;5346;48.766;8.674;2023-07-09T07:11:03;27.00;99.90
10597;DHT22;5346;48.766;8.674;2023-07-09T07:13:40;27.00;99.90
10597;DHT22;5346;48.766;8.674;2023-07-09T07:16:14;27.20;99.90
10597;DHT22;5346;48.766;8.674;2023-07-09T07:18:54;27.20;99.90
10597;DHT22;5346;48.766;8.674;2023-07-09T07:21:28;27.30;99.90
10597;DHT22;5346;48.766;8.674;2023-07-09T07:24:02;27.40;99.90
10597;DHT22;5346;48.766;8.674;2023-07-09T07:26:38;27.40;99.90
10597;DHT22;5346;48.766;8.674;2023-07-09T07:29:05;27.50;99.90
10597;DHT22;5346;48.766;8.674;2023-07-09T07:31:39;27.50;99.90
10597;DHT22;5346;48.766;8.674;2023-07-09T07:34:13;27.70;99.90
10597;DHT22;5346;48.766;8.674;2023-07-09T07:36:40;27.70;99.90
10597;DHT22;5346;48.766;8.674;2023-07-09T07:39:14;27.80;99.90
10597;DHT22;5346;48.766;8.674;2023-07-09T07:41:42;27.90;99.90
10597;DHT22;5346;48.766;8.674;2023-07-09T07:44:17;28.00;99.90
10597;DHT22;5346;48.766;8.674;2023-07-09T07:46:51;28.00;99.90
10597;DHT22;5346;48.766;8.674;2023-07-09T07:49:27;28.00;99.90
10597;DHT22;5346;48.766;8.674;2023-07-09T07:52:00;28.10;99.90
10597;DHT22;5346;48.766;8.674;2023-07-09T07:54:36;28.20;99.90
10597;DHT22;5346;48.766;8.674;2023-07-09T07:57:04;28.30;99.90
10597;DHT22;5346;48.766;8.674;2023-07-09T07:59:39;28.30;99.90
10597;DHT22;5346;48.766;8.674;2023-07-09T08:02:10;28.50;99.90
10597;DHT22;5346;48.766;8.674;2023-07-09T08:04:45;28.50;99.90
10597;DHT22;5346;48.766;8.674;2023-07-09T08:07:26;28.60;99.90
10597;DHT22;5346;48.766;8.674;2023-07-09T08:10:00;28.70;99.90
10597;DHT22;5346;48.766;8.674;2023-07-09T08:12:29;28.70;99.90
10597;DHT22;5346;48.766;8.674;2023-07-09T08:14:57;28.90;99.90
10597;DHT22;5346;48.766;8.674;2023-07-09T08:17:30;29.00;99.90
10597;DHT22;5346;48.766;8.674;2023-07-09T08:20:05;29.00;99.90
10597;DHT22;5346;48.766;8.674;2023-07-09T08:22:39;29.10;99.90
10597;DHT22;5346;48.766;8.674;2023-07-09T08:25:13;29.10;99.90
10597;DHT22;5346;48.766;8.674;2023-07-09T08:27:47;29.40;99.90
10597;DHT22;5346;48.766;8.674;2023-07-09T08:30:15;29.50;99.90
10597;DHT22;5346;48.766;8.674;2023-07-09T08:32:49;29.50;99.90
10597;DHT22;5346;48.766;8.674;2023-07-09T08:35:24;29.60;99.90
10597;DHT22;5346;48.766;8.674;2023-07-09T08:38:03;29.80;99.90
10597;DHT22;5346;48.766;8.674;2023-07-09T08:40:30;29.90;99.90
10597;DHT22;5346;48.766;8.674;2023-07-09T08:43:32;30.00;99.90
10597;DHT22;5346;48.766;8.674;2023-07-09T08:49:12;30.00;99.90
10597;DHT22;5346;48.766;8.674;2023-07-09T08:51:45;29.80;99.90
10597;DHT22;5346;48.766;8.674;2023-07-09T08:54:34;29.80;99.90
10597;DHT22;5346;48.766;8.674;2023-07-09T08:57:26;30.00;99.90
10597;DHT22;5346;48.766;8.674;2023-07-09T09:05:54;30.30;99.90
10597;DHT22;5346;48.766;8.674;2023-07-09T09:08:55;30.40;99.90
10597;DHT22;5346;48.766;8.674;2023-07-09T09:14:33;30.50;99.90
10597;DHT22;5346;48.766;8.674;2023-07-09T09:17:13;30.70;99.90
10597;DHT22;5346;48.766;8.674;2023-07-09T09:19:59;31.00;99.90
10597;DHT22;5346;48.766;8.674;2023-07-09T09:22:52;31.40;99.90
10597;DHT22;5346;48.766;8.674;2023-07-09T09:25:31;31.70;99.90
10597;DHT22;5346;48.766;8.674;2023-07-09T09:28:07;31.90;99.90
10597;DHT22;5346;48.766;8.674;2023-07-09T09:30:35;31.70;99.90
10597;DHT22;5346;48.766;8.674;2023-07-09T09:33:10;31.90;99.90
10597;DHT22;5346;48.766;8.674;2023-07-09T09:35:47;32.00;99.90
10597;DHT22;5346;48.766;8.674;2023-07-09T09:38:24;32.00;99.90
10597;DHT22;5346;48.766;8.674;2023-07-09T09:40:59;32.10;99.90
10597;DHT22;5346;48.766;8.674;2023-07-09T09:43:34;32.20;99.90
10597;DHT22;5346;48.766;8.674;2023-07-09T09:46:23;32.40;99.90
10597;DHT22;5346;48.766;8.674;2023-07-09T09:48:58;32.50;99.90
10597;DHT22;5346;48.766;8.674;2023-07-09T09:51:34;32.30;99.90
10597;DHT22;5346;48.766;8.674;2023-07-09T09:54:16;32.60;99.90
10597;DHT22;5346;48.766;8.674;2023-07-09T09:56:49;32.60;99.90
10597;DHT22;5346;48.766;8.674;2023-07-09T09:59:36;32.80;99.90
10597;DHT22;5346;48.766;8.674;2023-07-09T10:02:18;33.20;99.90
10597;DHT22;5346;48.766;8.674;2023-07-09T10:04:57;32.70;99.90
10597;DHT22;5346;48.766;8.674;2023-07-09T10:07:38;32.60;99.90
10597;DHT22;5346;48.766;8.674;2023-07-09T10:10:21;32.80;99.90
10597;DHT22;5346;48.766;8.674;2023-07-09T14:06:15;37.00;71.90
10597;DHT22;5346;48.766;8.674;2023-07-09T14:08:50;37.10;89.90
10597;DHT22;5346;48.766;8.674;2023-07-09T14:11:17;37.10;92.00
10597;DHT22;5346;48.766;8.674;2023-07-09T14:13:52;37.00;99.10
10597;DHT22;5346;48.766;8.674;2023-07-09T14:16:19;37.00;83.00
10597;DHT22;5346;48.766;8.674;2023-07-09T14:18:53;37.00;84.40
10597;DHT22;5346;48.766;8.674;2023-07-09T14:21:27;36.80;83.00
10597;DHT22;5346;48.766;8.674;2023-07-09T14:26:50;37.50;89.60
10597;DHT22;5346;48.766;8.674;2023-07-09T14:29:25;37.60;87.20
10597;DHT22;5346;48.766;8.674;2023-07-09T14:31:59;37.70;76.50
10597;DHT22;5346;48.766;8.674;2023-07-09T14:34:34;38.10;81.50
10597;DHT22;5346;48.766;8.674;2023-07-09T14:37:01;38.80;56.30
10597;DHT22;5346;48.766;8.674;2023-07-09T14:39:34;38.50;68.50
10597;DHT22;5346;48.766;8.674;2023-07-09T14:42:12;38.90;55.70
10597;DHT22;5346;48.766;8.674;2023-07-09T14:44:40;39.10;41.30
10597;DHT22;5346;48.766;8.674;2023-07-09T14:47:20;39.00;47.00
10597;DHT22;5346;48.766;8.674;2023-07-09T14:49:49;38.30;61.50
10597;DHT22;5346;48.766;8.674;2023-07-09T14:52:24;38.40;52.00
10597;DHT22;5346;48.766;8.674;2023-07-09T14:54:58;37.90;66.40
10597;DHT22;5346;48.766;8.674;2023-07-09T14:57:26;36.10;94.80
10597;DHT22;5346;48.766;8.674;2023-07-09T15:00:00;35.10;99.90
10597;DHT22;5346;48.766;8.674;2023-07-09T15:02:36;34.00;99.90
10597;DHT22;5346;48.766;8.674;2023-07-09T15:05:19;33.50;99.90
10597;DHT22;5346;48.766;8.674;2023-07-09T15:07:55;33.40;99.90
10597;DHT22;5346;48.766;8.674;2023-07-09T15:10:29;33.00;99.90
10597;DHT22;5346;48.766;8.674;2023-07-09T15:12:58;32.70;99.90
10597;DHT22;5346;48.766;8.674;2023-07-09T15:15:31;32.30;99.90
10597;DHT22;5346;48.766;8.674;2023-07-09T15:18:01;32.10;99.90
10597;DHT22;5346;48.766;8.674;2023-07-09T15:20:48;32.10;99.90
10597;DHT22;5346;48.766;8.674;2023-07-09T15:23:18;32.10;99.90
10597;DHT22;5346;48.766;8.674;2023-07-09T15:25:57;32.00;99.90
10597;DHT22;5346;48.766;8.674;2023-07-09T15:28:31;32.00;99.90
10597;DHT22;5346;48.766;8.674;2023-07-09T15:31:10;31.90;99.90
10597;DHT22;5346;48.766;8.674;2023-07-09T15:33:38;31.60;99.90
10597;DHT22;5346;48.766;8.674;2023-07-09T15:36:12;31.50;99.90
10597;DHT22;5346;48.766;8.674;2023-07-09T15:38:40;31.40;99.90
10597;DHT22;5346;48.766;8.674;2023-07-09T15:41:15;31.20;99.90
10597;DHT22;5346;48.766;8.674;2023-07-09T15:43:49;31.10;99.90
10597;DHT22;5346;48.766;8.674;2023-07-09T15:46:20;31.00;99.90
10597;DHT22;5346;48.766;8.674;2023-07-09T15:48:56;30.80;99.90
10597;DHT22;5346;48.766;8.674;2023-07-09T15:51:29;30.60;99.90
10597;DHT22;5346;48.766;8.674;2023-07-09T15:54:25;30.40;99.90
10597;DHT22;5346;48.766;8.674;2023-07-09T15:56:58;30.00;99.90
10597;DHT22;5346;48.766;8.674;2023-07-09T15:59:35;29.20;99.90
10597;DHT22;5346;48.766;8.674;2023-07-09T16:02:10;28.60;99.90
